Home > Products > Valid Products > TAF

000
FTUS44 KBMX 241118 AAA
TAFANB
TAF AMD
KANB 241118Z 2411/2506 00000KT P6SM BKN015
     FM241400 12010KT P6SM SCT015 BKN035=



000
FTUS44 KBMX 240935 AAB
TAFTOI
TAF AMD
KTOI 240935Z 2410/2506 11009KT P6SM BKN015
     FM241600 12010KT P6SM SCT025 BKN050=



000
FTUS44 KBMX 240935 AAB
TAFTOI
TAF AMD
KTOI 240935Z 2410/2506 11009KT P6SM BKN015
     FM241600 12010KT P6SM SCT025 BKN050=



000
FTUS44 KBMX 240902 AAA
TAFTOI
TAF AMD
KTOI 240902Z 2409/2506 08006KT P6SM SCT250
     FM241000 11009KT P6SM SCT015 BKN020
     FM241600 12010KT P6SM SCT025 BKN050=



000
FTUS44 KBMX 240902 AAA
TAFTOI
TAF AMD
KTOI 240902Z 2409/2506 08006KT P6SM SCT250
     FM241000 11009KT P6SM SCT015 BKN020
     FM241600 12010KT P6SM SCT025 BKN050=



000
FTUS44 KBMX 240520
TAFANB
TAF
KANB 240520Z 2406/2506 00000KT P6SM SCT250
     FM241300 12010KT P6SM SCT015 BKN035=



000
FTUS44 KBMX 240520
TAFANB
TAF
KANB 240520Z 2406/2506 00000KT P6SM SCT250
     FM241300 12010KT P6SM SCT015 BKN035=



000
FTUS44 KBMX 240520
TAFTCL
TAF
KTCL 240520Z 2406/2506 11005KT P6SM SCT250
     FM241400 14011KT P6SM SCT020 BKN040=



000
FTUS44 KBMX 240520
TAFTOI
TAF
KTOI 240520Z 2406/2506 08006KT P6SM SCT250
     FM241000 11009KT P6SM SCT015 BKN035
     FM241600 12010KT P6SM SCT025 BKN050=



000
FTUS44 KBMX 240520
TAFBHM
TAF
KBHM 240520Z 2406/2506 11004KT P6SM SCT250
     FM241400 13011KT P6SM SCT020 BKN040=



000
FTUS44 KBMX 240520
TAFEET
TAF
KEET 240520Z 2406/2506 12004KT P6SM SCT250
     FM241300 13010KT P6SM SCT020 BKN040=



000
FTUS44 KBMX 240520
TAFMGM
TAF
KMGM 240520Z 2406/2506 11006KT P6SM SCT250
     FM241100 11009KT P6SM SCT015 BKN035
     FM241600 12010KT P6SM SCT025 BKN050=



000
FTUS44 KBMX 232326
TAFEET
TAF
KEET 232326Z 2400/2424 12006KT P6SM SCT250
     FM241300 13010KT P6SM SCT020 BKN040=



000
FTUS44 KBMX 232326
TAFBHM
TAF
KBHM 232326Z 2400/2424 11006KT P6SM SCT250
     FM241400 13011KT P6SM SCT020 BKN040=



000
FTUS44 KBMX 232326
TAFTCL
TAF
KTCL 232326Z 2400/2424 12006KT P6SM SCT250
     FM241400 14011KT P6SM SCT020 BKN040=



000
FTUS44 KBMX 232326
TAFTOI
TAF
KTOI 232326Z 2400/2424 09006KT P6SM SCT250
     FM241000 11009KT P6SM SCT015 BKN035
     FM241600 12010KT P6SM SCT025 BKN050=



000
FTUS44 KBMX 232326
TAFANB
TAF
KANB 232326Z 2400/2424 11006KT P6SM SCT250
     FM241300 12010KT P6SM SCT015 BKN035=



000
FTUS44 KBMX 232326
TAFMGM
TAF
KMGM 232326Z 2400/2424 09006KT P6SM SCT250
     FM241100 11009KT P6SM SCT015 BKN035
     FM241600 12010KT P6SM SCT025 BKN050=



000
FTUS44 KBMX 232326
TAFANB
TAF
KANB 232326Z 2400/2424 11006KT P6SM SCT250
     FM241300 12010KT P6SM SCT015 BKN035=



000
FTUS44 KBMX 232326
TAFTOI
TAF
KTOI 232326Z 2400/2424 09006KT P6SM SCT250
     FM241000 11009KT P6SM SCT015 BKN035
     FM241600 12010KT P6SM SCT025 BKN050=



000
FTUS44 KBMX 232326
TAFMGM
TAF
KMGM 232326Z 2400/2424 09006KT P6SM SCT250
     FM241100 11009KT P6SM SCT015 BKN035
     FM241600 12010KT P6SM SCT025 BKN050=



000
FTUS44 KBMX 232326
TAFBHM
TAF
KBHM 232326Z 2400/2424 11006KT P6SM SCT250
     FM241400 13011KT P6SM SCT020 BKN040=



000
FTUS44 KBMX 232326
TAFEET
TAF
KEET 232326Z 2400/2424 12006KT P6SM SCT250
     FM241300 13010KT P6SM SCT020 BKN040=



000
FTUS44 KBMX 232326
TAFTCL
TAF
KTCL 232326Z 2400/2424 12006KT P6SM SCT250
     FM241400 14011KT P6SM SCT020 BKN040=



000
FTUS44 KBMX 231720
TAFEET
TAF
KEET 231720Z 2318/2418 14007KT P6SM SCT050=



000
FTUS44 KBMX 231720
TAFTCL
TAF
KTCL 231720Z 2318/2418 10008KT P6SM SCT050=



000
FTUS44 KBMX 231720
TAFANB
TAF
KANB 231720Z 2318/2418 11007KT P6SM SCT050=



000
FTUS44 KBMX 231720
TAFTOI
TAF
KTOI 231720Z 2318/2418 09009KT P6SM SCT050=



000
FTUS44 KBMX 231720
TAFEET
TAF
KEET 231720Z 2318/2418 14007KT P6SM SCT050=



000
FTUS44 KBMX 231720
TAFBHM
TAF
KBHM 231720Z 2318/2418 12010G20KT P6SM SCT050
     FM240200 13006KT P6SM SCT250=



000
FTUS44 KBMX 231720
TAFMGM
TAF
KMGM 231720Z 2318/2418 10011G20KT P6SM SCT050
     FM240200 09006KT P6SM SCT250=



000
FTUS44 KBMX 231720
TAFANB
TAF
KANB 231720Z 2318/2418 11007KT P6SM SCT050=



000
FTUS44 KBMX 231134
TAFBHM
TAF
KBHM 231134Z 2312/2412 08005KT P6SM SKC
     FM231500 12008KT P6SM SCT250=



000
FTUS44 KBMX 231134
TAFANB
TAF
KANB 231134Z 2312/2412 07004KT P6SM SKC
     FM231600 11008KT P6SM SCT250=



000
FTUS44 KBMX 231134
TAFTOI
TAF
KTOI 231134Z 2312/2412 09004KT P6SM SKC
     FM231500 10008KT P6SM SCT250=



000
FTUS44 KBMX 231134
TAFTCL
TAF
KTCL 231134Z 2312/2412 09005KT P6SM SKC
     FM231500 12008KT P6SM SCT250=



000
FTUS44 KBMX 231134
TAFEET
TAF
KEET 231134Z 2312/2412 08004KT P6SM SKC
     FM231500 12007KT P6SM SCT250=



000
FTUS44 KBMX 231134
TAFMGM
TAF
KMGM 231134Z 2312/2412 09004KT P6SM SKC
     FM231500 10009KT P6SM SCT250=



000
FTUS44 KBMX 231134
TAFMGM
TAF
KMGM 231134Z 2312/2412 09004KT P6SM SKC
     FM231500 10009KT P6SM SCT250=



000
FTUS44 KBMX 231134
TAFBHM
TAF
KBHM 231134Z 2312/2412 08005KT P6SM SKC
     FM231500 12008KT P6SM SCT250=



000
FTUS44 KBMX 231134
TAFTOI
TAF
KTOI 231134Z 2312/2412 09004KT P6SM SKC
     FM231500 10008KT P6SM SCT250=



000
FTUS44 KBMX 231134
TAFANB
TAF
KANB 231134Z 2312/2412 07004KT P6SM SKC
     FM231600 11008KT P6SM SCT250=



000
FTUS44 KBMX 231134
TAFTCL
TAF
KTCL 231134Z 2312/2412 09005KT P6SM SKC
     FM231500 12008KT P6SM SCT250=



000
FTUS44 KBMX 231134
TAFEET
TAF
KEET 231134Z 2312/2412 08004KT P6SM SKC
     FM231500 12007KT P6SM SCT250=



000
FTUS44 KBMX 230520
TAFTOI
TAF
KTOI 230520Z 2306/2406 00000KT P6SM SKC
     FM231200 10009KT P6SM SCT250=



000
FTUS44 KBMX 230520
TAFTOI
TAF
KTOI 230520Z 2306/2406 00000KT P6SM SKC
     FM231200 10009KT P6SM SCT250=



000
FTUS44 KBMX 230520
TAFMGM
TAF
KMGM 230520Z 2306/2406 07002KT P6SM SKC
     FM231200 10009KT P6SM SCT250=



000
FTUS44 KBMX 230520
TAFBHM
TAF
KBHM 230520Z 2306/2406 06003KT P6SM SKC
     FM231500 12009KT P6SM SCT250=



000
FTUS44 KBMX 230520
TAFANB
TAF
KANB 230520Z 2306/2406 VRB02KT P6SM SKC
     FM231500 10009KT P6SM SCT250=



000
FTUS44 KBMX 230520
TAFEET
TAF
KEET 230520Z 2306/2406 00000KT P6SM SKC
     FM231500 12008KT P6SM SCT250=



000
FTUS44 KBMX 230520
TAFTCL
TAF
KTCL 230520Z 2306/2406 00000KT P6SM SKC
     FM231500 12008KT P6SM SCT250=



000
FTUS44 KBMX 222328
TAFMGM
TAF
KMGM 222328Z 2300/2324 04004KT P6SM SKC
     FM231200 10008KT P6SM SCT250=



000
FTUS44 KBMX 222328
TAFBHM
TAF
KBHM 222328Z 2300/2324 35007KT P6SM SKC
     FM230100 00000KT P6SM SKC
     FM231500 12008KT P6SM SCT250=



000
FTUS44 KBMX 222328
TAFTCL
TAF
KTCL 222328Z 2300/2324 05006KT P6SM SKC
     FM230200 00000KT P6SM SKC
     FM231500 12008KT P6SM SCT250=



000
FTUS44 KBMX 222328
TAFANB
TAF
KANB 222328Z 2300/2324 02006KT P6SM SKC
     FM230100 VRB02KT P6SM SKC
     FM231500 08008KT P6SM SCT250=



000
FTUS44 KBMX 222328
TAFEET
TAF
KEET 222328Z 2300/2324 00000KT P6SM SKC
     FM231500 13008KT P6SM SCT250=



000
FTUS44 KBMX 222328
TAFANB
TAF
KANB 222328Z 2300/2324 02006KT P6SM SKC
     FM230100 VRB02KT P6SM SKC
     FM231500 08008KT P6SM SCT250=



000
FTUS44 KBMX 222328
TAFTCL
TAF
KTCL 222328Z 2300/2324 05006KT P6SM SKC
     FM230200 00000KT P6SM SKC
     FM231500 12008KT P6SM SCT250=



000
FTUS44 KBMX 222328
TAFBHM
TAF
KBHM 222328Z 2300/2324 35007KT P6SM SKC
     FM230100 00000KT P6SM SKC
     FM231500 12008KT P6SM SCT250=



000
FTUS44 KBMX 222328
TAFMGM
TAF
KMGM 222328Z 2300/2324 04004KT P6SM SKC
     FM231200 10008KT P6SM SCT250=



000
FTUS44 KBMX 222328
TAFTOI
TAF
KTOI 222328Z 2300/2324 03006KT P6SM SKC
     FM230100 00000KT P6SM SKC
     FM231200 10008KT P6SM SCT250=



000
FTUS44 KBMX 222328
TAFEET
TAF
KEET 222328Z 2300/2324 00000KT P6SM SKC
     FM231500 13008KT P6SM SCT250=



000
FTUS44 KBMX 222328
TAFTOI
TAF
KTOI 222328Z 2300/2324 03006KT P6SM SKC
     FM230100 00000KT P6SM SKC
     FM231200 10008KT P6SM SCT250=



000
FTUS44 KBMX 221727
TAFMGM
TAF
KMGM 221727Z 2218/2318 01007KT P6SM SCT250
     FM230000 04004KT P6SM SKC
     FM231200 10008KT P6SM SCT250=



000
FTUS44 KBMX 221727
TAFEET
TAF
KEET 221727Z 2218/2318 35006KT P6SM SCT250
     FM230000 00000KT P6SM SKC
     FM231500 13008KT P6SM SCT250=



000
FTUS44 KBMX 221727
TAFTCL
TAF
KTCL 221727Z 2218/2318 36006KT P6SM SCT250
     FM230200 00000KT P6SM SKC
     FM231500 12008KT P6SM SCT250=



000
FTUS44 KBMX 221727
TAFBHM
TAF
KBHM 221727Z 2218/2318 04008KT P6SM SCT250
     FM230100 00000KT P6SM SKC
     FM231500 12008KT P6SM SCT250=



000
FTUS44 KBMX 221727
TAFTOI
TAF
KTOI 221727Z 2218/2318 35008KT P6SM SCT250
     FM230100 00000KT P6SM SKC
     FM231200 10008KT P6SM SCT250=



000
FTUS44 KBMX 221727
TAFANB
TAF
KANB 221727Z 2218/2318 03006KT P6SM SCT250
     FM230100 00000KT P6SM SKC
     FM231500 08008KT P6SM SCT250=



000
FTUS44 KBMX 221727
TAFMGM
TAF
KMGM 221727Z 2218/2318 01007KT P6SM SCT250
     FM230000 04004KT P6SM SKC
     FM231200 10008KT P6SM SCT250=



000
FTUS44 KBMX 221727
TAFTCL
TAF
KTCL 221727Z 2218/2318 36006KT P6SM SCT250
     FM230200 00000KT P6SM SKC
     FM231500 12008KT P6SM SCT250=



000
FTUS44 KBMX 221727
TAFEET
TAF
KEET 221727Z 2218/2318 35006KT P6SM SCT250
     FM230000 00000KT P6SM SKC
     FM231500 13008KT P6SM SCT250=



000
FTUS44 KBMX 221727
TAFANB
TAF
KANB 221727Z 2218/2318 03006KT P6SM SCT250
     FM230100 00000KT P6SM SKC
     FM231500 08008KT P6SM SCT250=



000
FTUS44 KBMX 221727
TAFBHM
TAF
KBHM 221727Z 2218/2318 04008KT P6SM SCT250
     FM230100 00000KT P6SM SKC
     FM231500 12008KT P6SM SCT250=



000
FTUS44 KBMX 221727
TAFTOI
TAF
KTOI 221727Z 2218/2318 35008KT P6SM SCT250
     FM230100 00000KT P6SM SKC
     FM231200 10008KT P6SM SCT250=



000
FTUS44 KBMX 221120
TAFANB
TAF
KANB 221120Z 2212/2312 35004KT P6SM BKN120
     FM221500 03009KT P6SM SCT100
     FM230300 00000KT P6SM SKC=



000
FTUS44 KBMX 221120
TAFBHM
TAF
KBHM 221120Z 2212/2312 36005KT P6SM BKN120
     FM221500 02011KT P6SM SCT100
     FM230300 00000KT P6SM SKC=



000
FTUS44 KBMX 221120
TAFTOI
TAF
KTOI 221120Z 2212/2312 36004KT P6SM SCT025 BKN120
     FM221500 01009KT P6SM SCT100
     FM230300 00000KT P6SM SKC=



000
FTUS44 KBMX 221120
TAFMGM
TAF
KMGM 221120Z 2212/2312 36005KT P6SM BKN120
     FM221500 01011KT P6SM SCT100
     FM230300 04004KT P6SM SKC=



000
FTUS44 KBMX 221120
TAFANB
TAF
KANB 221120Z 2212/2312 35004KT P6SM BKN120
     FM221500 03009KT P6SM SCT100
     FM230300 00000KT P6SM SKC=



000
FTUS44 KBMX 221120
TAFBHM
TAF
KBHM 221120Z 2212/2312 36005KT P6SM BKN120
     FM221500 02011KT P6SM SCT100
     FM230300 00000KT P6SM SKC=



000
FTUS44 KBMX 221120
TAFMGM
TAF
KMGM 221120Z 2212/2312 36005KT P6SM BKN120
     FM221500 01011KT P6SM SCT100
     FM230300 04004KT P6SM SKC=



000
FTUS44 KBMX 221120
TAFTCL
TAF
KTCL 221120Z 2212/2312 36004KT P6SM BKN120
     FM221500 02010KT P6SM SCT100
     FM230300 00000KT P6SM SKC=



000
FTUS44 KBMX 221120
TAFTOI
TAF
KTOI 221120Z 2212/2312 36004KT P6SM SCT025 BKN120
     FM221500 01009KT P6SM SCT100
     FM230300 00000KT P6SM SKC=



000
FTUS44 KBMX 221120
TAFEET
TAF
KEET 221120Z 2212/2312 36004KT P6SM BKN120
     FM221500 02010KT P6SM SCT100
     FM230300 00000KT P6SM SKC=



000
FTUS44 KBMX 221120
TAFEET
TAF
KEET 221120Z 2212/2312 36004KT P6SM BKN120
     FM221500 02010KT P6SM SCT100
     FM230300 00000KT P6SM SKC=



000
FTUS44 KBMX 221120
TAFTCL
TAF
KTCL 221120Z 2212/2312 36004KT P6SM BKN120
     FM221500 02010KT P6SM SCT100
     FM230300 00000KT P6SM SKC=



000
FTUS44 KBMX 220725 AAA
TAFEET
TAF AMD
KEET 220725Z 2207/2306 36004KT P6SM BKN120
     FM221400 02010KT P6SM SCT100=



000
FTUS44 KBMX 220725 AAA
TAFMGM
TAF AMD
KMGM 220725Z 2207/2306 36005KT P6SM BKN120
     FM221500 01011KT P6SM SCT100=



000
FTUS44 KBMX 220725 AAA
TAFTOI
TAF AMD
KTOI 220725Z 2207/2306 36004KT P6SM SCT025 BKN120
     FM221500 01009KT P6SM SCT100=



000
FTUS44 KBMX 220725 AAA
TAFBHM
TAF AMD
KBHM 220725Z 2207/2306 36005KT P6SM BKN120
     FM221400 02011KT P6SM SCT100=



000
FTUS44 KBMX 220725 AAA
TAFANB
TAF AMD
KANB 220725Z 2207/2306 35004KT P6SM BKN120
     FM221400 03009KT P6SM SCT100=



000
FTUS44 KBMX 220725 AAA
TAFTCL
TAF AMD
KTCL 220725Z 2207/2306 36004KT P6SM BKN120
     FM221400 02010KT P6SM SCT100=



000
FTUS44 KBMX 220725 AAA
TAFANB
TAF AMD
KANB 220725Z 2207/2306 35004KT P6SM BKN120
     FM221400 03009KT P6SM SCT100=



000
FTUS44 KBMX 220725 AAA
TAFBHM
TAF AMD
KBHM 220725Z 2207/2306 36005KT P6SM BKN120
     FM221400 02011KT P6SM SCT100=



000
FTUS44 KBMX 220725 AAA
TAFTOI
TAF AMD
KTOI 220725Z 2207/2306 36004KT P6SM SCT025 BKN120
     FM221500 01009KT P6SM SCT100=



000
FTUS44 KBMX 220725 AAA
TAFTCL
TAF AMD
KTCL 220725Z 2207/2306 36004KT P6SM BKN120
     FM221400 02010KT P6SM SCT100=



000
FTUS44 KBMX 220725 AAA
TAFMGM
TAF AMD
KMGM 220725Z 2207/2306 36005KT P6SM BKN120
     FM221500 01011KT P6SM SCT100=



000
FTUS44 KBMX 220520
TAFANB
TAF
KANB 220520Z 2206/2306 35004KT P6SM BKN030 BKN120
     FM221400 03009KT P6SM SCT100=



000
FTUS44 KBMX 220520
TAFEET
TAF
KEET 220520Z 2206/2306 36004KT P6SM BKN025 BKN120
     FM221400 02010KT P6SM SCT100=



000
FTUS44 KBMX 220520
TAFMGM
TAF
KMGM 220520Z 2206/2306 36005KT P6SM BKN030 BKN120
     FM221500 01011KT P6SM SCT100=



000
FTUS44 KBMX 220520
TAFANB
TAF
KANB 220520Z 2206/2306 35004KT P6SM BKN030 BKN120
     FM221400 03009KT P6SM SCT100=



000
FTUS44 KBMX 220520
TAFTOI
TAF
KTOI 220520Z 2206/2306 36004KT P6SM SCT025 BKN120
     FM221500 01009KT P6SM SCT100=



000
FTUS44 KBMX 220520
TAFEET
TAF
KEET 220520Z 2206/2306 36004KT P6SM BKN025 BKN120
     FM221400 02010KT P6SM SCT100=



000
FTUS44 KBMX 220520
TAFMGM
TAF
KMGM 220520Z 2206/2306 36005KT P6SM BKN030 BKN120
     FM221500 01011KT P6SM SCT100=



000
FTUS44 KBMX 220520
TAFTCL
TAF
KTCL 220520Z 2206/2306 36004KT P6SM BKN030 BKN120
     FM221400 02010KT P6SM SCT100=



000
FTUS44 KBMX 220520
TAFTOI
TAF
KTOI 220520Z 2206/2306 36004KT P6SM SCT025 BKN120
     FM221500 01009KT P6SM SCT100=



000
FTUS44 KBMX 220520
TAFTCL
TAF
KTCL 220520Z 2206/2306 36004KT P6SM BKN030 BKN120
     FM221400 02010KT P6SM SCT100=



000
FTUS44 KBMX 220520
TAFBHM
TAF
KBHM 220520Z 2206/2306 36005KT P6SM BKN025 BKN120
     FM221400 02011KT P6SM SCT100=



000
FTUS44 KBMX 220520
TAFBHM
TAF
KBHM 220520Z 2206/2306 36005KT P6SM BKN025 BKN120
     FM221400 02011KT P6SM SCT100=



000
FTUS44 KBMX 212320
TAFTCL
TAF
KTCL 212320Z 2200/2224 35008KT P6SM BKN025 OVC250
     FM220500 36004KT P6SM SCT025 BKN120
     FM221500 02010KT P6SM SCT100=



000
FTUS44 KBMX 212320
TAFEET
TAF
KEET 212320Z 2200/2224 33008KT P6SM BKN025 OVC250
     FM220400 36004KT P6SM SCT025 BKN120
     FM221500 02010KT P6SM SCT100=



000
FTUS44 KBMX 212320
TAFTOI
TAF
KTOI 212320Z 2200/2224 34008KT P6SM SCT035 BKN050
     FM220400 36004KT P6SM SCT035 BKN120
     FM221500 01009KT P6SM SCT100=



000
FTUS44 KBMX 212320
TAFBHM
TAF
KBHM 212320Z 2200/2224 35010KT P6SM BKN035 OVC250
     FM220400 36005KT P6SM SCT025 BKN120
     FM221500 02011KT P6SM SCT100=



000
FTUS44 KBMX 212320
TAFTOI
TAF
KTOI 212320Z 2200/2224 34008KT P6SM SCT035 BKN050
     FM220400 36004KT P6SM SCT035 BKN120
     FM221500 01009KT P6SM SCT100=



000
FTUS44 KBMX 212320
TAFEET
TAF
KEET 212320Z 2200/2224 33008KT P6SM BKN025 OVC250
     FM220400 36004KT P6SM SCT025 BKN120
     FM221500 02010KT P6SM SCT100=



000
FTUS44 KBMX 212320
TAFMGM
TAF
KMGM 212320Z 2200/2224 33010KT P6SM SCT035 BKN045
     FM220400 36005KT P6SM SCT035 BKN120
     FM221500 01011KT P6SM SCT100=



000
FTUS44 KBMX 212320
TAFTCL
TAF
KTCL 212320Z 2200/2224 35008KT P6SM BKN025 OVC250
     FM220500 36004KT P6SM SCT025 BKN120
     FM221500 02010KT P6SM SCT100=



000
FTUS44 KBMX 212320
TAFANB
TAF
KANB 212320Z 2200/2224 33008KT P6SM BKN035 OVC250
     FM220400 35004KT P6SM SCT025 BKN120
     FM221500 03009KT P6SM SCT100=



000
FTUS44 KBMX 212320
TAFMGM
TAF
KMGM 212320Z 2200/2224 33010KT P6SM SCT035 BKN045
     FM220400 36005KT P6SM SCT035 BKN120
     FM221500 01011KT P6SM SCT100=



000
FTUS44 KBMX 212320
TAFBHM
TAF
KBHM 212320Z 2200/2224 35010KT P6SM BKN035 OVC250
     FM220400 36005KT P6SM SCT025 BKN120
     FM221500 02011KT P6SM SCT100=



000
FTUS44 KBMX 212320
TAFANB
TAF
KANB 212320Z 2200/2224 33008KT P6SM BKN035 OVC250
     FM220400 35004KT P6SM SCT025 BKN120
     FM221500 03009KT P6SM SCT100=



000
FTUS44 KBMX 211732
TAFTCL
TAF
KTCL 211732Z 2118/2218 28011G18KT P6SM OVC018
      TEMPO 2122/2202 BKN025
     FM220400 31006KT P6SM BKN035
     FM221500 03006KT P6SM SCT090=



000
FTUS44 KBMX 211732
TAFMGM
TAF
KMGM 211732Z 2118/2218 30011G23KT P6SM OVC035
     FM220400 34010KT P6SM SCT090=



000
FTUS44 KBMX 211732
TAFTOI
TAF
KTOI 211732Z 2118/2218 30011G23KT P6SM OVC035
     FM220400 34010KT P6SM SCT090=



000
FTUS44 KBMX 211732
TAFEET
TAF
KEET 211732Z 2118/2218 31008G16KT P6SM BKN025 OVC040
     FM212000 34012G20KT P6SM BKN025 BKN040
     FM220400 03006KT P6SM SCT025 BKN120
     FM221500 02010KT P6SM SCT090=



000
FTUS44 KBMX 211732
TAFANB
TAF
KANB 211732Z 2118/2218 28011G18KT P6SM BKN035 OVC040
     FM212000 32011G20KT P6SM BKN030
      TEMPO 2122/2202 BKN025
     FM220400 31006KT P6SM SCT025 BKN120
     FM221500 03009KT P6SM SCT090=



000
FTUS44 KBMX 211732
TAFBHM
TAF
KBHM 211732Z 2118/2218 36008G20KT P6SM BKN025 OVC040
     FM212000 34013G23KT P6SM BKN025 BKN040
     FM220400 03006KT P6SM SCT025 BKN120
     FM221500 02010KT P6SM SCT090=



000
FTUS44 KBMX 211242 AAA
TAFANB
TAF AMD
KANB 211242Z 2113/2212 31007KT P6SM SCT025
     FM211400 33010KT P6SM BKN025
     FM211800 33014G24KT P6SM SCT050 SCT250
     FM220600 02002KT P6SM SKC=



000
FTUS44 KBMX 211242 AAA
TAFANB
TAF AMD
KANB 211242Z 2113/2212 31007KT P6SM SCT025
     FM211400 33010KT P6SM BKN025
     FM211800 33014G24KT P6SM SCT050 SCT250
     FM220600 02002KT P6SM SKC=



    US Dept of Commerce
    National Oceanic and Atmospheric Administration
    National Weather Service
    1325 East West Highway
    Silver Spring, MD 20910
    Page Author: NWS Internet Services Team
Disclaimer
Information Quality
Credits
Glossary
Privacy Policy
Freedom of Information Act (FOIA)
About Us
Career Opportunities